Alturas Rancheria, California
Current Conditions -  °F | °C
As of 1:55 PM on Thursday 27 Nov 2014 (Local Time) from KAAT Reporting Station
Clear Clear  
Wind Chill: 12°   Ceiling: Unl
Heat Index: 12°   Visibility: 10mi
Dew Point:   Wind: 3mph
Humidity: 51%   Direction: 290°WNW
Pressure: 30.12"   Gusts: NA
Location:  41.4836°N, 120.55°W
Report Text: KAAT 272155Z AUTO 29003KT 10SM CLR 12/02 A3012 RMK AO2 SLP193 T01220022
Loading
Personal Weather Stations






























Interactive Weather Map New forecast layout! Learn more

10-Day Weather Forecast

Advertisements
Track Severe Weather on mobile